createdAt,value
2023-05-06T00:00:40.123Z,27.42
2023-05-06T00:01:40.209Z,27.40
2023-05-06T00:02:40.206Z,27.43
2023-05-06T00:03:40.371Z,27.42
2023-05-06T00:04:40.301Z,27.42
2023-05-06T00:05:40.293Z,27.43
2023-05-06T00:06:40.354Z,27.40
2023-05-06T00:07:40.363Z,27.43
2023-05-06T00:08:40.381Z,27.44
2023-05-06T00:09:40.457Z,27.42
2023-05-06T00:10:40.487Z,27.42
2023-05-06T00:11:40.528Z,27.42
2023-05-06T00:12:40.624Z,27.40
2023-05-06T00:13:40.624Z,27.43
2023-05-06T00:14:40.629Z,27.42
2023-05-06T00:15:40.671Z,27.43
2023-05-06T00:16:40.765Z,27.42
2023-05-06T00:17:40.734Z,27.43
2023-05-06T00:18:40.798Z,27.40
2023-05-06T00:19:40.863Z,27.40
2023-05-06T00:20:40.863Z,27.40
2023-05-06T00:21:40.885Z,27.42
2023-05-06T00:22:40.924Z,27.40
2023-05-06T00:23:40.992Z,27.39
2023-05-06T00:24:41.026Z,27.40
2023-05-06T00:25:41.078Z,27.37
2023-05-06T00:26:41.098Z,27.43
2023-05-06T00:27:41.133Z,27.40
2023-05-06T00:28:41.195Z,27.39
2023-05-06T00:29:41.205Z,27.40
2023-05-06T00:30:41.273Z,27.40
2023-05-06T00:31:41.349Z,27.40
2023-05-06T00:32:41.358Z,27.37
2023-05-06T00:33:41.439Z,27.43
2023-05-06T00:34:41.406Z,27.39
2023-05-06T00:35:41.454Z,27.40
2023-05-06T00:36:41.485Z,27.42
2023-05-06T00:37:41.523Z,27.40
2023-05-06T00:38:41.555Z,27.42
2023-05-06T00:39:41.599Z,27.39
2023-05-06T00:40:41.652Z,27.40
2023-05-06T00:41:41.663Z,27.39
2023-05-06T00:42:41.694Z,27.39
2023-05-06T00:43:41.756Z,27.40
2023-05-06T00:44:41.906Z,27.37
2023-05-06T00:45:41.882Z,27.39
2023-05-06T00:46:41.893Z,27.39
2023-05-06T00:47:42.051Z,27.40
2023-05-06T00:48:41.975Z,27.39
2023-05-06T00:49:42.004Z,27.37
2023-05-06T00:50:42.052Z,27.39
2023-05-06T00:51:42.034Z,27.37
2023-05-06T00:52:42.114Z,27.40
2023-05-06T00:53:42.137Z,27.36
2023-05-06T00:54:42.200Z,27.37
2023-05-06T00:55:42.217Z,27.37
2023-05-06T00:56:42.266Z,27.37
2023-05-06T00:57:42.307Z,27.37
2023-05-06T00:58:42.989Z,27.37
2023-05-06T00:59:42.381Z,27.39
2023-05-06T01:00:42.431Z,27.37
2023-05-06T01:01:42.521Z,27.37
2023-05-06T01:02:47.414Z,27.37
2023-05-06T01:03:43.689Z,27.37
2023-05-06T01:04:42.519Z,27.36
2023-05-06T01:05:42.502Z,27.34
2023-05-06T01:06:42.463Z,27.34
2023-05-06T01:07:42.498Z,27.36
2023-05-06T01:08:42.475Z,27.36
2023-05-06T01:09:42.466Z,27.33
2023-05-06T01:10:42.457Z,27.34
2023-05-06T01:11:42.487Z,27.34
2023-05-06T01:12:42.554Z,27.36
2023-05-06T01:13:42.431Z,27.34
2023-05-06T01:14:42.457Z,27.33
2023-05-06T01:15:42.434Z,27.34
2023-05-06T01:16:42.530Z,27.34
2023-05-06T01:17:42.601Z,27.34
2023-05-06T01:18:42.583Z,27.33
2023-05-06T01:19:42.632Z,27.34
2023-05-06T01:20:42.705Z,27.33
2023-05-06T01:21:42.806Z,27.33
2023-05-06T01:22:42.758Z,27.33
2023-05-06T01:23:42.840Z,27.34
2023-05-06T01:24:42.868Z,27.33
2023-05-06T01:25:42.910Z,27.33
2023-05-06T01:26:42.992Z,27.33
2023-05-06T01:27:43.027Z,27.36
2023-05-06T01:28:43.064Z,27.33
2023-05-06T01:29:43.133Z,27.33
2023-05-06T01:30:43.192Z,27.32
2023-05-06T01:31:43.224Z,27.32
2023-05-06T01:32:43.253Z,27.34
2023-05-06T01:33:44.030Z,27.33
2023-05-06T01:34:43.334Z,27.30
2023-05-06T01:35:43.375Z,27.32
2023-05-06T01:36:43.435Z,27.32
2023-05-06T01:37:43.490Z,27.33
2023-05-06T01:38:43.539Z,27.30
2023-05-06T01:39:43.577Z,27.33
2023-05-06T01:40:43.618Z,27.32
2023-05-06T01:41:43.717Z,27.32
2023-05-06T01:42:43.719Z,27.33
2023-05-06T01:43:43.784Z,27.32
2023-05-06T01:44:43.864Z,27.30
2023-05-06T01:45:43.889Z,27.33
2023-05-06T01:46:44.011Z,27.32
2023-05-06T01:47:44.045Z,27.32
2023-05-06T01:48:44.060Z,27.29
2023-05-06T01:49:44.103Z,27.30
2023-05-06T01:50:44.134Z,27.32
2023-05-06T01:51:44.185Z,27.30
2023-05-06T01:52:44.255Z,27.30
2023-05-06T01:53:44.391Z,27.29
2023-05-06T01:54:44.369Z,27.28
2023-05-06T01:55:44.466Z,27.30
2023-05-06T01:56:44.530Z,27.30
2023-05-06T01:57:44.556Z,27.29
2023-05-06T01:58:44.523Z,27.29
2023-05-06T01:59:44.545Z,27.29
2023-05-06T02:00:44.542Z,27.30
2023-05-06T02:01:44.562Z,27.28
2023-05-06T02:02:44.606Z,27.26
2023-05-06T02:03:44.721Z,27.30
2023-05-06T02:04:44.516Z,27.26
2023-05-06T02:05:44.506Z,27.29
2023-05-06T02:06:44.498Z,27.26
2023-05-06T02:07:44.512Z,27.29
2023-05-06T02:08:44.549Z,27.28
2023-05-06T02:09:44.642Z,27.28
2023-05-06T02:10:44.720Z,27.28
2023-05-06T02:11:44.694Z,27.26
2023-05-06T02:12:44.762Z,27.26
2023-05-06T02:13:44.785Z,27.28
2023-05-06T02:14:44.843Z,27.29
2023-05-06T02:15:44.937Z,27.29
2023-05-06T02:16:44.955Z,27.26
2023-05-06T02:17:45.116Z,27.28
2023-05-06T02:18:45.035Z,27.28
2023-05-06T02:19:45.093Z,27.26
2023-05-06T02:20:45.145Z,27.26
2023-05-06T02:21:45.170Z,27.28
2023-05-06T02:22:45.268Z,27.28
2023-05-06T02:23:45.284Z,27.29
2023-05-06T02:24:45.341Z,27.28
2023-05-06T02:25:45.394Z,27.26
2023-05-06T02:26:45.442Z,27.26
2023-05-06T02:27:45.473Z,27.26
2023-05-06T02:28:45.547Z,27.25
2023-05-06T02:29:45.608Z,27.25
2023-05-06T02:30:45.652Z,27.26
2023-05-06T02:31:45.750Z,27.25
2023-05-06T02:32:45.803Z,27.26
2023-05-06T02:33:45.808Z,27.26
2023-05-06T02:34:45.846Z,27.26
2023-05-06T02:35:45.911Z,27.25
2023-05-06T02:36:45.970Z,27.25
2023-05-06T02:37:46.002Z,27.25
2023-05-06T02:38:46.073Z,27.26
2023-05-06T02:39:46.133Z,27.23
2023-05-06T02:40:46.209Z,27.23
2023-05-06T02:41:46.254Z,27.26
2023-05-06T02:42:46.379Z,27.20
2023-05-06T02:43:46.352Z,27.25
2023-05-06T02:44:46.398Z,27.23
2023-05-06T02:45:46.481Z,27.23
2023-05-06T02:46:46.491Z,27.23
2023-05-06T02:47:46.637Z,27.23
2023-05-06T02:48:46.623Z,27.23
2023-05-06T02:49:46.673Z,27.25
2023-05-06T02:50:46.738Z,27.23
2023-05-06T02:51:46.792Z,27.20
2023-05-06T02:52:46.857Z,27.23
2023-05-06T02:53:46.909Z,27.23
2023-05-06T02:54:46.981Z,27.23
2023-05-06T02:55:47.046Z,27.23
2023-05-06T02:56:47.050Z,27.22
2023-05-06T02:57:47.130Z,27.25
2023-05-06T02:58:47.160Z,27.23
2023-05-06T02:59:47.241Z,27.20
2023-05-06T03:00:47.349Z,27.23
2023-05-06T03:01:47.364Z,27.25
2023-05-06T03:02:47.457Z,27.22
2023-05-06T03:03:47.502Z,27.23
2023-05-06T03:04:47.514Z,27.22
2023-05-06T03:05:47.582Z,27.23
2023-05-06T03:06:47.639Z,27.23
2023-05-06T03:07:47.707Z,27.20
2023-05-06T03:08:47.741Z,27.23
2023-05-06T03:09:47.811Z,27.22
2023-05-06T03:10:47.889Z,27.22
2023-05-06T03:11:47.948Z,27.22
2023-05-06T03:12:48.018Z,27.19
2023-05-06T03:13:48.097Z,27.22
2023-05-06T03:14:48.128Z,27.20
2023-05-06T03:15:48.206Z,27.22
2023-05-06T03:16:48.296Z,27.20
2023-05-06T03:17:48.370Z,27.20
2023-05-06T03:18:48.361Z,27.22
2023-05-06T03:19:48.425Z,27.19
2023-05-06T03:20:48.456Z,27.19
2023-05-06T03:21:48.691Z,27.19
2023-05-06T03:22:48.600Z,27.20
2023-05-06T03:23:48.625Z,27.19
2023-05-06T03:24:48.725Z,27.20
2023-05-06T03:25:48.755Z,27.19
2023-05-06T03:26:48.815Z,27.22
2023-05-06T03:27:48.907Z,27.20
2023-05-06T03:28:48.920Z,27.20
2023-05-06T03:29:49.743Z,27.17
2023-05-06T03:30:49.094Z,27.22
2023-05-06T03:31:49.158Z,27.19
2023-05-06T03:32:49.184Z,27.17
2023-05-06T03:33:49.248Z,27.20
2023-05-06T03:34:49.304Z,27.19
2023-05-06T03:35:49.385Z,27.19
2023-05-06T03:36:49.407Z,27.17
2023-05-06T03:37:49.466Z,27.17
2023-05-06T03:38:49.548Z,27.19
2023-05-06T03:39:49.618Z,27.17
2023-05-06T03:40:49.686Z,27.17
2023-05-06T03:41:49.726Z,27.20
2023-05-06T03:42:49.789Z,27.19
2023-05-06T03:43:49.816Z,27.19
2023-05-06T03:44:49.900Z,27.19
2023-05-06T03:45:50.004Z,27.17
2023-05-06T03:46:50.006Z,27.17
2023-05-06T03:47:50.157Z,27.19
2023-05-06T03:48:50.109Z,27.17
2023-05-06T03:49:50.204Z,27.17
2023-05-06T03:50:50.260Z,27.19
2023-05-06T03:51:50.321Z,27.19
2023-05-06T03:52:50.351Z,27.19
2023-05-06T03:53:51.763Z,27.19
2023-05-06T03:54:50.553Z,27.17
2023-05-06T03:55:50.567Z,27.16
2023-05-06T03:56:50.654Z,27.16
2023-05-06T03:57:50.685Z,27.17
2023-05-06T03:58:50.756Z,27.19
2023-05-06T03:59:50.811Z,27.14
2023-05-06T04:00:50.891Z,27.19
2023-05-06T04:01:50.970Z,27.16
2023-05-06T04:02:51.096Z,27.16
2023-05-06T04:03:51.149Z,27.17
2023-05-06T04:04:51.236Z,27.17
2023-05-06T04:05:51.206Z,27.16
2023-05-06T04:06:51.258Z,27.17
2023-05-06T04:07:51.304Z,27.16
2023-05-06T04:08:51.369Z,27.17
2023-05-06T04:09:51.407Z,27.16
2023-05-06T04:10:51.500Z,27.16
2023-05-06T04:11:51.529Z,27.17
2023-05-06T04:12:51.665Z,27.17
2023-05-06T04:13:51.651Z,27.17
2023-05-06T04:14:51.723Z,27.16
2023-05-06T04:15:51.821Z,27.19
2023-05-06T04:16:51.829Z,27.17
2023-05-06T04:17:52.052Z,27.16
2023-05-06T04:18:51.959Z,27.16
2023-05-06T04:19:52.023Z,27.16
2023-05-06T04:20:52.099Z,27.16
2023-05-06T04:21:52.146Z,27.16
2023-05-06T04:22:52.197Z,27.17
2023-05-06T04:23:52.288Z,27.16
2023-05-06T04:24:52.322Z,27.14
2023-05-06T04:25:52.430Z,27.16
2023-05-06T04:26:52.451Z,27.16
2023-05-06T04:27:52.545Z,27.16
2023-05-06T04:28:52.565Z,27.14
2023-05-06T04:29:52.654Z,27.14
2023-05-06T04:30:52.737Z,27.16
2023-05-06T04:31:52.826Z,27.16
2023-05-06T04:32:52.856Z,27.14
2023-05-06T04:33:52.992Z,27.16
2023-05-06T04:34:52.948Z,27.16
2023-05-06T04:35:53.012Z,27.14
2023-05-06T04:36:53.062Z,27.17
2023-05-06T04:37:53.135Z,27.17
2023-05-06T04:38:53.216Z,27.16
2023-05-06T04:39:53.242Z,27.14
2023-05-06T04:40:53.304Z,27.17
2023-05-06T04:41:53.386Z,27.16
2023-05-06T04:42:53.421Z,27.16
2023-05-06T04:43:53.476Z,27.16
2023-05-06T04:44:53.572Z,27.16
2023-05-06T04:45:53.671Z,27.14
2023-05-06T04:46:53.671Z,27.16
2023-05-06T04:47:53.783Z,27.14
2023-05-06T04:48:53.823Z,27.14
2023-05-06T04:49:53.928Z,27.13
2023-05-06T04:50:53.940Z,27.16
2023-05-06T04:51:53.976Z,27.14
2023-05-06T04:52:54.044Z,27.14
2023-05-06T04:53:54.119Z,27.14
2023-05-06T04:54:54.166Z,27.14
2023-05-06T04:55:54.234Z,27.14
2023-05-06T04:56:54.272Z,27.14
2023-05-06T04:57:54.350Z,27.14
2023-05-06T04:58:54.408Z,27.13
2023-05-06T04:59:54.476Z,27.16
2023-05-06T05:00:54.535Z,27.14
2023-05-06T05:01:54.603Z,27.13
2023-05-06T05:02:54.711Z,27.12
2023-05-06T05:03:54.712Z,27.14
2023-05-06T05:04:54.749Z,27.13
2023-05-06T05:05:54.895Z,27.14
2023-05-06T05:06:54.882Z,27.13
2023-05-06T05:07:54.970Z,27.14
2023-05-06T05:08:55.478Z,27.13
2023-05-06T05:09:55.061Z,27.14
2023-05-06T05:10:57.102Z,27.13
2023-05-06T05:11:55.236Z,27.14
2023-05-06T05:12:55.298Z,27.16
2023-05-06T05:13:56.922Z,27.14
2023-05-06T05:14:55.404Z,27.14
2023-05-06T05:15:55.468Z,27.14
2023-05-06T05:16:55.588Z,27.16
2023-05-06T05:17:55.603Z,27.14
2023-05-06T05:18:55.634Z,27.17
2023-05-06T05:19:55.711Z,27.14
2023-05-06T05:20:55.753Z,27.16
2023-05-06T05:21:55.891Z,27.19
2023-05-06T05:22:55.910Z,27.17
2023-05-06T05:23:55.954Z,27.17
2023-05-06T05:24:56.004Z,27.17
2023-05-06T05:25:56.080Z,27.19
2023-05-06T05:26:56.133Z,27.17
2023-05-06T05:27:56.219Z,27.16
2023-05-06T05:28:56.260Z,27.17
2023-05-06T05:29:56.317Z,27.19
2023-05-06T05:30:56.455Z,27.19
2023-05-06T05:31:56.453Z,27.20
2023-05-06T05:32:56.597Z,27.20
2023-05-06T05:33:56.640Z,27.20
2023-05-06T05:34:56.635Z,27.23
2023-05-06T05:35:56.717Z,27.19
2023-05-06T05:36:56.763Z,27.23
2023-05-06T05:37:56.904Z,27.22
2023-05-06T05:38:56.871Z,27.22
2023-05-06T05:39:56.929Z,27.22
2023-05-06T05:40:56.974Z,27.20
2023-05-06T05:41:57.064Z,27.22
2023-05-06T05:42:57.092Z,27.23
2023-05-06T05:43:57.157Z,27.20
2023-05-06T05:44:57.253Z,27.19
2023-05-06T05:45:57.353Z,27.20
2023-05-06T05:46:57.372Z,27.20
2023-05-06T05:47:57.484Z,27.20
2023-05-06T05:48:57.497Z,27.19
2023-05-06T05:49:57.561Z,27.19
2023-05-06T05:50:57.605Z,27.19
2023-05-06T05:51:57.641Z,27.16
2023-05-06T05:52:57.745Z,27.20
2023-05-06T05:53:57.784Z,27.19
2023-05-06T05:54:57.834Z,27.20
2023-05-06T05:55:57.907Z,27.20
2023-05-06T05:56:58.047Z,27.19
2023-05-06T05:57:58.056Z,27.23
2023-05-06T05:58:58.081Z,27.22
2023-05-06T05:59:58.163Z,27.20
2023-05-06T06:00:58.234Z,27.22
2023-05-06T06:01:58.289Z,27.22
2023-05-06T06:02:58.424Z,27.25
2023-05-06T06:03:58.638Z,27.23
2023-05-06T06:04:58.542Z,27.25
2023-05-06T06:05:58.534Z,27.23
2023-05-06T06:06:58.576Z,27.23
2023-05-06T06:07:58.636Z,27.23
2023-05-06T06:08:58.702Z,27.25
2023-05-06T06:09:58.842Z,27.22
2023-05-06T06:10:58.812Z,27.23
2023-05-06T06:11:58.892Z,27.23
2023-05-06T06:12:58.985Z,27.25
2023-05-06T06:13:59.018Z,27.25
2023-05-06T06:14:59.080Z,27.23
2023-05-06T06:15:59.205Z,27.23
2023-05-06T06:16:59.233Z,27.23
2023-05-06T06:17:59.350Z,27.23
2023-05-06T06:18:59.348Z,27.23
2023-05-06T06:19:59.398Z,27.25
2023-05-06T06:20:59.441Z,27.25
2023-05-06T06:21:59.503Z,27.25
2023-05-06T06:22:59.572Z,27.23
2023-05-06T06:23:59.711Z,27.22
2023-05-06T06:24:59.676Z,27.26
2023-05-06T06:25:59.762Z,27.22
2023-05-06T06:26:59.848Z,27.26
2023-05-06T06:27:59.887Z,27.23
2023-05-06T06:28:59.930Z,27.25
2023-05-06T06:30:00.037Z,27.26
2023-05-06T06:31:00.108Z,27.26
2023-05-06T06:32:00.203Z,27.25
2023-05-06T06:33:00.268Z,27.25
2023-05-06T06:34:00.300Z,27.25
2023-05-06T06:35:00.342Z,27.25
2023-05-06T06:36:00.346Z,27.23
2023-05-06T06:37:00.397Z,27.25
2023-05-06T06:38:00.506Z,27.26
2023-05-06T06:39:00.537Z,27.28
2023-05-06T06:40:00.597Z,27.26
2023-05-06T06:41:00.712Z,27.23
2023-05-06T06:42:00.735Z,27.25
2023-05-06T06:43:00.788Z,27.26
2023-05-06T06:44:00.822Z,27.26
2023-05-06T06:45:00.900Z,27.25
2023-05-06T06:46:00.985Z,27.28
2023-05-06T06:47:01.027Z,27.28
2023-05-06T06:48:01.133Z,27.25
2023-05-06T06:49:01.131Z,27.28
2023-05-06T06:50:01.215Z,27.28
2023-05-06T06:51:01.276Z,27.26
2023-05-06T06:52:01.309Z,27.26
2023-05-06T06:53:01.365Z,27.29
2023-05-06T06:54:01.431Z,27.29
2023-05-06T06:55:01.499Z,27.29
2023-05-06T06:56:01.598Z,27.29
2023-05-06T06:57:01.616Z,27.29
2023-05-06T06:58:01.714Z,27.30
2023-05-06T06:59:01.703Z,27.30
2023-05-06T07:00:01.784Z,27.32
2023-05-06T07:01:01.900Z,27.33
2023-05-06T07:02:01.901Z,27.33
2023-05-06T07:03:01.955Z,27.33
2023-05-06T07:04:02.028Z,27.32
2023-05-06T07:05:02.083Z,27.30
2023-05-06T07:06:02.142Z,27.33
2023-05-06T07:07:02.173Z,27.32
2023-05-06T07:08:02.214Z,27.32
2023-05-06T07:09:02.286Z,27.33
2023-05-06T07:10:02.324Z,27.33
2023-05-06T07:11:02.392Z,27.34
2023-05-06T07:12:02.424Z,27.33
2023-05-06T07:13:02.507Z,27.33
2023-05-06T07:14:02.612Z,27.34
2023-05-06T07:15:02.589Z,27.34
2023-05-06T07:16:02.645Z,27.34
2023-05-06T07:17:02.719Z,27.34
2023-05-06T07:18:02.776Z,27.37
2023-05-06T07:19:02.807Z,27.36
2023-05-06T07:20:02.859Z,27.37
2023-05-06T07:21:02.871Z,27.37
2023-05-06T07:22:02.952Z,27.36
2023-05-06T07:23:03.014Z,27.39
2023-05-06T07:24:03.054Z,27.36
2023-05-06T07:25:03.084Z,27.37
2023-05-06T07:26:03.150Z,27.36
2023-05-06T07:27:03.185Z,27.36
2023-05-06T07:28:03.255Z,27.36
2023-05-06T07:29:03.307Z,27.37
2023-05-06T07:30:03.848Z,27.36
2023-05-06T07:31:03.424Z,27.37
2023-05-06T07:32:03.441Z,27.37
2023-05-06T07:33:03.554Z,27.39
2023-05-06T07:34:03.505Z,27.36
2023-05-06T07:35:03.549Z,27.34
2023-05-06T07:36:03.600Z,27.39
2023-05-06T07:37:03.629Z,27.40
2023-05-06T07:38:03.660Z,27.42
2023-05-06T07:39:03.712Z,27.40
2023-05-06T07:40:03.772Z,27.40
2023-05-06T07:41:03.849Z,27.40
2023-05-06T07:42:03.870Z,27.42
2023-05-06T07:43:03.914Z,27.43
2023-05-06T07:44:03.936Z,27.44
2023-05-06T07:45:04.017Z,27.43
2023-05-06T07:46:04.209Z,27.47
2023-05-06T07:47:04.216Z,27.46
2023-05-06T07:48:04.196Z,27.46
2023-05-06T07:49:04.159Z,27.49
2023-05-06T07:50:04.218Z,27.50
2023-05-06T07:51:04.251Z,27.47
2023-05-06T07:52:04.278Z,27.50
2023-05-06T07:53:04.331Z,27.50
2023-05-06T07:54:04.370Z,27.50
2023-05-06T07:55:04.392Z,27.51
2023-05-06T07:56:04.463Z,27.53
2023-05-06T07:57:04.466Z,27.51
2023-05-06T07:58:04.539Z,27.53
2023-05-06T07:59:04.564Z,27.54
2023-05-06T08:00:04.599Z,27.54
2023-05-06T08:01:04.622Z,27.54
2023-05-06T08:02:04.670Z,27.54
2023-05-06T08:03:04.774Z,27.54
2023-05-06T08:04:04.828Z,27.53
2023-05-06T08:05:04.766Z,27.54
2023-05-06T08:06:04.782Z,27.56
2023-05-06T08:07:04.827Z,27.56
2023-05-06T08:08:04.844Z,27.53
2023-05-06T08:09:04.875Z,27.56
2023-05-06T08:10:04.958Z,27.54
2023-05-06T08:11:04.982Z,27.56
2023-05-06T08:12:04.971Z,27.54
2023-05-06T08:13:05.059Z,27.56
2023-05-06T08:14:05.053Z,27.56
2023-05-06T08:15:05.088Z,27.57
2023-05-06T08:16:05.163Z,27.54
2023-05-06T08:17:05.153Z,27.57
2023-05-06T08:18:20.928Z,27.58
2023-05-06T08:19:06.211Z,27.56
2023-05-06T08:20:05.174Z,27.57
2023-05-06T08:21:05.192Z,27.58
2023-05-06T08:22:05.284Z,27.61
2023-05-06T08:23:05.166Z,27.61
2023-05-06T08:24:05.154Z,27.63
2023-05-06T08:25:05.159Z,27.64
2023-05-06T08:26:05.155Z,27.64
2023-05-06T08:27:05.177Z,27.64
2023-05-06T08:28:05.137Z,27.63
2023-05-06T08:29:05.127Z,27.65
2023-05-06T08:30:05.146Z,27.63
2023-05-06T08:31:05.106Z,27.67
2023-05-06T08:32:05.154Z,27.64
2023-05-06T08:33:05.096Z,27.64
2023-05-06T08:34:05.161Z,27.63
2023-05-06T08:35:05.091Z,27.64
2023-05-06T08:36:05.092Z,27.64
2023-05-06T08:37:05.111Z,27.64
2023-05-06T08:38:05.127Z,27.64
2023-05-06T08:39:05.175Z,27.64
2023-05-06T08:40:05.199Z,27.65
2023-05-06T08:41:05.216Z,27.65
2023-05-06T08:42:05.273Z,27.65
2023-05-06T08:43:05.276Z,27.64
2023-05-06T08:44:05.297Z,27.63
2023-05-06T08:45:05.342Z,27.65
2023-05-06T08:46:05.433Z,27.65
2023-05-06T08:47:05.402Z,27.67
2023-05-06T08:48:05.507Z,27.67
2023-05-06T08:49:05.421Z,27.65
2023-05-06T08:50:05.507Z,27.70
2023-05-06T08:51:05.469Z,27.68
2023-05-06T08:52:05.492Z,27.67
2023-05-06T08:53:05.538Z,27.68
2023-05-06T08:54:05.550Z,27.67
2023-05-06T08:55:05.565Z,27.70
2023-05-06T08:56:05.590Z,27.70
2023-05-06T08:57:05.636Z,27.71
2023-05-06T08:58:05.650Z,27.71
2023-05-06T08:59:05.673Z,27.70
2023-05-06T09:00:05.749Z,27.71
2023-05-06T09:01:05.734Z,27.70
2023-05-06T09:02:05.753Z,27.73
2023-05-06T09:03:05.802Z,27.73
2023-05-06T09:04:05.786Z,27.73
2023-05-06T09:05:05.777Z,27.73
2023-05-06T09:06:05.873Z,27.73
2023-05-06T09:07:05.821Z,27.71
2023-05-06T09:08:05.878Z,27.73
2023-05-06T09:09:05.903Z,27.74
2023-05-06T09:10:05.911Z,27.70
2023-05-06T09:11:05.925Z,27.73
2023-05-06T09:12:05.928Z,27.71
2023-05-06T09:13:06.011Z,27.71
2023-05-06T09:14:05.981Z,27.71
2023-05-06T09:15:06.035Z,27.70
2023-05-06T09:16:06.077Z,27.68
2023-05-06T09:17:06.157Z,27.68
2023-05-06T09:18:06.103Z,27.70
2023-05-06T09:19:06.109Z,27.67
2023-05-06T09:20:06.133Z,27.65
2023-05-06T09:21:06.143Z,27.67
2023-05-06T09:22:06.329Z,27.67
2023-05-06T09:23:06.243Z,27.68
2023-05-06T09:24:06.283Z,27.65
2023-05-06T09:25:07.282Z,27.65
2023-05-06T09:26:06.291Z,27.65
2023-05-06T09:27:07.494Z,27.64
2023-05-06T09:28:06.367Z,27.61
2023-05-06T09:29:06.373Z,27.63
2023-05-06T09:30:07.234Z,27.63
2023-05-06T09:31:06.457Z,27.61
2023-05-06T09:32:06.456Z,27.60
2023-05-06T09:33:06.552Z,27.60
2023-05-06T09:34:06.509Z,27.63
2023-05-06T09:35:06.548Z,27.60
2023-05-06T09:36:06.571Z,27.60
2023-05-06T09:37:06.581Z,27.61
2023-05-06T09:38:07.353Z,27.61
2023-05-06T09:39:06.638Z,27.58
2023-05-06T09:40:06.700Z,27.58
2023-05-06T09:41:06.721Z,27.56
2023-05-06T09:42:06.773Z,27.58
2023-05-06T09:43:06.823Z,27.58
2023-05-06T09:44:06.821Z,27.57
2023-05-06T09:45:06.843Z,27.57
2023-05-06T09:46:07.032Z,27.57
2023-05-06T09:47:06.943Z,27.58
2023-05-06T09:48:07.000Z,27.58
2023-05-06T09:49:06.950Z,27.57
2023-05-06T09:50:06.988Z,27.56
2023-05-06T09:51:07.027Z,27.58
2023-05-06T09:52:07.085Z,27.57
2023-05-06T09:53:07.109Z,27.58
2023-05-06T09:54:07.195Z,27.57
2023-05-06T09:55:07.205Z,27.57
2023-05-06T09:56:07.181Z,27.58
2023-05-06T09:57:07.221Z,27.61
2023-05-06T09:58:07.254Z,27.57
2023-05-06T09:59:07.287Z,27.57
2023-05-06T10:00:07.296Z,27.61
2023-05-06T10:01:07.381Z,27.64
2023-05-06T10:02:07.412Z,27.64
2023-05-06T10:03:07.535Z,27.65
2023-05-06T10:04:07.568Z,27.65
2023-05-06T10:05:07.639Z,27.67
2023-05-06T10:06:07.461Z,27.65
2023-05-06T10:07:07.476Z,27.67
2023-05-06T10:08:07.517Z,27.70
2023-05-06T10:09:07.524Z,27.71
2023-05-06T10:10:07.688Z,27.70
2023-05-06T10:11:07.569Z,27.71
2023-05-06T10:12:07.622Z,27.71
2023-05-06T10:13:07.713Z,27.74
2023-05-06T10:14:07.675Z,27.75
2023-05-06T10:15:07.683Z,27.73
2023-05-06T10:16:07.810Z,27.75
2023-05-06T10:17:07.700Z,27.73
2023-05-06T10:18:07.822Z,27.74
2023-05-06T10:19:07.714Z,27.75
2023-05-06T10:20:07.734Z,27.79
2023-05-06T10:21:07.764Z,27.75
2023-05-06T10:22:07.833Z,27.77
2023-05-06T10:23:07.817Z,27.77
2023-05-06T10:24:07.832Z,27.77
2023-05-06T10:25:07.916Z,27.79
2023-05-06T10:26:07.861Z,27.75
2023-05-06T10:27:07.886Z,27.80
2023-05-06T10:28:09.199Z,27.80
2023-05-06T10:29:08.890Z,27.81
2023-05-06T10:30:07.883Z,27.80
2023-05-06T10:31:07.890Z,27.83
2023-05-06T10:32:07.945Z,27.84
2023-05-06T10:33:08.150Z,27.83
2023-05-06T10:34:07.833Z,27.84
2023-05-06T10:35:07.881Z,27.83
2023-05-06T10:36:07.914Z,27.84
2023-05-06T10:37:07.833Z,27.84
2023-05-06T10:38:07.839Z,27.81
2023-05-06T10:39:07.850Z,27.80
2023-05-06T10:40:07.819Z,27.83
2023-05-06T10:41:07.795Z,27.83
2023-05-06T10:42:07.874Z,27.85
2023-05-06T10:43:07.775Z,27.81
2023-05-06T10:44:07.797Z,27.81
2023-05-06T10:45:07.793Z,27.81
2023-05-06T10:46:07.908Z,27.80
2023-05-06T10:47:07.746Z,27.81
2023-05-06T10:48:07.784Z,27.79
2023-05-06T10:49:07.733Z,27.81
2023-05-06T10:50:07.745Z,27.81
2023-05-06T10:51:07.733Z,27.81
2023-05-06T10:52:07.695Z,27.81
2023-05-06T10:53:07.712Z,27.84
2023-05-06T10:54:07.704Z,27.84
2023-05-06T10:55:07.705Z,27.85
2023-05-06T10:56:07.692Z,27.87
2023-05-06T10:57:07.709Z,27.88
2023-05-06T10:58:07.758Z,27.88
2023-05-06T10:59:07.752Z,27.88
2023-05-06T11:00:07.720Z,27.88
2023-05-06T11:01:07.753Z,27.91
2023-05-06T11:02:07.767Z,27.94
2023-05-06T11:03:07.920Z,27.90
2023-05-06T11:04:07.809Z,27.93
2023-05-06T11:05:07.791Z,27.93
2023-05-06T11:06:07.777Z,27.94
2023-05-06T11:07:07.834Z,27.95
2023-05-06T11:08:07.813Z,27.94
2023-05-06T11:09:07.839Z,27.94
2023-05-06T11:10:07.840Z,27.94
2023-05-06T11:11:07.849Z,27.95
2023-05-06T11:12:07.880Z,27.98
2023-05-06T11:13:07.935Z,27.98
2023-05-06T11:14:07.921Z,27.98
2023-05-06T11:15:08.035Z,28.01
2023-05-06T11:16:07.873Z,28.02
2023-05-06T11:17:07.925Z,28.01
2023-05-06T11:18:08.048Z,28.01
2023-05-06T11:19:07.905Z,28.01
2023-05-06T11:20:08.107Z,28.01
2023-05-06T11:21:07.925Z,28.01
2023-05-06T11:22:07.962Z,27.98
2023-05-06T11:23:07.903Z,27.98
2023-05-06T11:24:07.940Z,28.02
2023-05-06T11:25:07.941Z,28.01
2023-05-06T11:26:07.955Z,28.01
2023-05-06T11:27:07.952Z,28.01
2023-05-06T11:28:07.958Z,28.00
2023-05-06T11:29:08.765Z,27.97
2023-05-06T11:30:08.145Z,27.97
2023-05-06T11:31:08.150Z,28.00
2023-05-06T11:32:07.986Z,27.98
2023-05-06T11:33:08.056Z,27.98
2023-05-06T11:34:08.007Z,28.00
2023-05-06T11:35:08.038Z,27.97
2023-05-06T11:36:08.055Z,28.00
2023-05-06T11:37:08.052Z,28.01
2023-05-06T11:38:08.066Z,28.00
2023-05-06T11:39:08.057Z,28.01
2023-05-06T11:40:08.181Z,28.02
2023-05-06T11:41:08.111Z,28.04
2023-05-06T11:42:08.094Z,28.08
2023-05-06T11:43:08.105Z,28.07
2023-05-06T11:44:09.241Z,28.11
2023-05-06T11:45:08.131Z,28.11
2023-05-06T11:46:08.187Z,28.14
2023-05-06T11:47:08.089Z,28.14
2023-05-06T11:48:08.125Z,28.15
2023-05-06T11:49:08.097Z,28.16
2023-05-06T11:50:08.145Z,28.16
2023-05-06T11:51:08.052Z,28.19
2023-05-06T11:52:08.044Z,28.18
2023-05-06T11:53:08.059Z,28.16
2023-05-06T11:54:08.036Z,28.16
2023-05-06T11:55:08.025Z,28.14
2023-05-06T11:56:08.018Z,28.15
2023-05-06T11:57:08.741Z,28.14
2023-05-06T11:58:08.010Z,28.11
2023-05-06T11:59:08.011Z,28.14
2023-05-06T12:00:08.118Z,28.11
2023-05-06T12:01:07.992Z,28.11
2023-05-06T12:02:08.052Z,28.12
2023-05-06T12:03:08.075Z,28.12
2023-05-06T12:04:08.110Z,28.11
2023-05-06T12:05:07.961Z,28.12
2023-05-06T12:06:07.949Z,28.11
2023-05-06T12:07:08.020Z,28.11
2023-05-06T12:08:16.316Z,28.12
2023-05-06T12:09:08.947Z,28.11
2023-05-06T12:10:08.041Z,28.11
2023-05-06T12:11:07.988Z,28.14
2023-05-06T12:12:07.934Z,28.12
2023-05-06T12:13:07.992Z,28.09
2023-05-06T12:14:07.904Z,28.12
2023-05-06T12:15:07.918Z,28.12
2023-05-06T12:16:07.914Z,28.12
2023-05-06T12:17:07.919Z,28.12
2023-05-06T12:18:07.986Z,28.14
2023-05-06T12:19:07.893Z,28.15
2023-05-06T12:20:08.001Z,28.16
2023-05-06T12:21:07.836Z,28.16
2023-05-06T12:22:07.839Z,28.18
2023-05-06T12:23:07.840Z,28.19
2023-05-06T12:24:07.927Z,28.24
2023-05-06T12:25:07.977Z,28.24
2023-05-06T12:26:07.834Z,28.24
2023-05-06T12:27:07.829Z,28.28
2023-05-06T12:28:07.903Z,28.29
2023-05-06T12:29:07.942Z,28.29
2023-05-06T12:30:07.998Z,28.32
2023-05-06T12:31:08.007Z,28.35
2023-05-06T12:32:08.138Z,28.39
2023-05-06T12:33:08.214Z,28.38
2023-05-06T12:34:08.157Z,28.41
2023-05-06T12:35:08.179Z,28.42
2023-05-06T12:36:08.214Z,28.46
2023-05-06T12:37:08.268Z,28.51
2023-05-06T12:38:08.327Z,28.51
2023-05-06T12:39:08.396Z,28.52
2023-05-06T12:40:08.538Z,28.52
2023-05-06T12:41:08.482Z,28.56
2023-05-06T12:42:08.569Z,28.58
2023-05-06T12:43:08.621Z,28.59
2023-05-06T12:44:08.657Z,28.62
2023-05-06T12:45:08.730Z,28.62
2023-05-06T12:46:08.957Z,28.66
2023-05-06T12:47:08.899Z,28.66
2023-05-06T12:48:08.959Z,28.66
2023-05-06T12:49:08.974Z,28.72
2023-05-06T12:50:09.254Z,28.72
2023-05-06T12:51:09.058Z,28.73
2023-05-06T12:52:09.091Z,28.75
2023-05-06T12:53:09.181Z,28.79